sensor_id;sensor_type;location;lat;lon;timestamp;P1;P2;P0
76383;PMS7003;65204;48.606;7.598;2023-08-06T00:00:19;3.00;1.50;1.50
76383;PMS7003;65204;48.606;7.598;2023-08-06T00:00:50;1.25;1.25;1.00
76383;PMS7003;65204;48.606;7.598;2023-08-06T00:01:20;1.00;1.00;0.50
76383;PMS7003;65204;48.606;7.598;2023-08-06T00:01:52;1.00;1.00;1.00
76383;PMS7003;65204;48.606;7.598;2023-08-06T00:02:23;3.75;1.00;1.00
76383;PMS7003;65204;48.606;7.598;2023-08-06T00:02:53;1.25;1.25;1.00
76383;PMS7003;65204;48.606;7.598;2023-08-06T00:03:23;1.00;1.00;1.00
76383;PMS7003;65204;48.606;7.598;2023-08-06T00:03:54;2.00;2.00;1.00
76383;PMS7003;65204;48.606;7.598;2023-08-06T00:04:24;1.50;1.50;1.00
76383;PMS7003;65204;48.606;7.598;2023-08-06T00:04:54;3.75;2.00;2.00
76383;PMS7003;65204;48.606;7.598;2023-08-06T00:05:25;1.50;1.50;1.00
76383;PMS7003;65204;48.606;7.598;2023-08-06T00:05:55;3.00;2.00;1.00
76383;PMS7003;65204;48.606;7.598;2023-08-06T00:06:25;2.00;1.00;0.50
76383;PMS7003;65204;48.606;7.598;2023-08-06T00:06:56;1.00;1.00;1.00
76383;PMS7003;65204;48.606;7.598;2023-08-06T00:07:26;1.25;1.25;1.00
76383;PMS7003;65204;48.606;7.598;2023-08-06T00:07:56;1.25;1.25;1.25
76383;PMS7003;65204;48.606;7.598;2023-08-06T00:08:27;0.75;0.75;0.50
76383;PMS7003;65204;48.606;7.598;2023-08-06T00:08:57;0.50;0.50;0.50
76383;PMS7003;65204;48.606;7.598;2023-08-06T00:09:28;2.00;2.00;1.75
76383;PMS7003;65204;48.606;7.598;2023-08-06T00:09:58;1.00;1.00;1.00
76383;PMS7003;65204;48.606;7.598;2023-08-06T00:10:28;2.00;2.00;2.00
76383;PMS7003;65204;48.606;7.598;2023-08-06T00:10:59;1.50;1.50;1.25
76383;PMS7003;65204;48.606;7.598;2023-08-06T00:11:29;1.00;1.00;1.00
76383;PMS7003;65204;48.606;7.598;2023-08-06T00:11:59;1.50;1.00;1.00
76383;PMS7003;65204;48.606;7.598;2023-08-06T00:12:30;1.00;1.00;0.50
76383;PMS7003;65204;48.606;7.598;2023-08-06T00:13:00;3.75;1.00;1.00
76383;PMS7003;65204;48.606;7.598;2023-08-06T00:13:30;2.00;2.00;1.00
76383;PMS7003;65204;48.606;7.598;2023-08-06T00:14:01;1.00;1.00;1.00
76383;PMS7003;65204;48.606;7.598;2023-08-06T00:14:31;1.75;1.75;1.00
76383;PMS7003;65204;48.606;7.598;2023-08-06T00:15:01;1.00;1.00;1.00
76383;PMS7003;65204;48.606;7.598;2023-08-06T00:15:31;4.00;1.00;1.00
76383;PMS7003;65204;48.606;7.598;2023-08-06T00:16:11;1.75;1.00;1.00
76383;PMS7003;65204;48.606;7.598;2023-08-06T00:16:43;1.60;1.00;1.00
76383;PMS7003;65204;48.606;7.598;2023-08-06T00:17:14;3.80;1.20;1.20
76383;PMS7003;65204;48.606;7.598;2023-08-06T00:17:44;3.75;0.25;0.25
76383;PMS7003;65204;48.606;7.598;2023-08-06T00:18:15;1.00;1.00;1.00
76383;PMS7003;65204;48.606;7.598;2023-08-06T00:18:45;1.00;1.00;1.00
76383;PMS7003;65204;48.606;7.598;2023-08-06T00:19:15;2.50;2.50;1.50
76383;PMS7003;65204;48.606;7.598;2023-08-06T00:19:46;2.00;2.00;1.75
76383;PMS7003;65204;48.606;7.598;2023-08-06T00:20:16;1.00;1.00;1.00
76383;PMS7003;65204;48.606;7.598;2023-08-06T00:20:46;2.25;1.00;0.75
76383;PMS7003;65204;48.606;7.598;2023-08-06T00:21:17;2.00;2.00;1.00
76383;PMS7003;65204;48.606;7.598;2023-08-06T00:21:47;1.75;0.50;0.50
76383;PMS7003;65204;48.606;7.598;2023-08-06T00:22:17;1.00;1.00;0.75
76383;PMS7003;65204;48.606;7.598;2023-08-06T00:22:48;1.00;1.00;1.00
76383;PMS7003;65204;48.606;7.598;2023-08-06T00:23:18;1.00;1.00;1.00
76383;PMS7003;65204;48.606;7.598;2023-08-06T00:23:48;1.00;1.00;1.00
76383;PMS7003;65204;48.606;7.598;2023-08-06T00:24:19;0.00;0.00;0.00
76383;PMS7003;65204;48.606;7.598;2023-08-06T00:24:49;1.75;1.75;1.00
76383;PMS7003;65204;48.606;7.598;2023-08-06T00:25:19;3.00;1.00;1.00
76383;PMS7003;65204;48.606;7.598;2023-08-06T00:25:50;1.25;1.00;1.00
76383;PMS7003;65204;48.606;7.598;2023-08-06T00:26:20;3.00;1.00;0.75
76383;PMS7003;65204;48.606;7.598;2023-08-06T00:26:50;0.75;0.75;0.00
76383;PMS7003;65204;48.606;7.598;2023-08-06T00:27:20;1.00;1.00;1.00
76383;PMS7003;65204;48.606;7.598;2023-08-06T00:27:51;0.00;0.00;0.00
76383;PMS7003;65204;48.606;7.598;2023-08-06T00:28:21;1.00;1.00;1.00
76383;PMS7003;65204;48.606;7.598;2023-08-06T00:28:51;1.00;1.00;1.00
76383;PMS7003;65204;48.606;7.598;2023-08-06T00:29:22;1.00;1.00;1.00
76383;PMS7003;65204;48.606;7.598;2023-08-06T00:29:52;2.75;1.00;1.00
76383;PMS7003;65204;48.606;7.598;2023-08-06T00:30:23;2.00;1.75;1.50
76383;PMS7003;65204;48.606;7.598;2023-08-06T00:30:53;0.75;0.75;0.50
76383;PMS7003;65204;48.606;7.598;2023-08-06T00:31:24;0.00;0.00;0.00
76383;PMS7003;65204;48.606;7.598;2023-08-06T00:31:54;1.25;1.25;1.00
76383;PMS7003;65204;48.606;7.598;2023-08-06T00:32:25;1.00;1.00;1.00
76383;PMS7003;65204;48.606;7.598;2023-08-06T00:32:55;2.00;2.00;1.75
76383;PMS7003;65204;48.606;7.598;2023-08-06T00:33:25;1.00;1.00;1.00
76383;PMS7003;65204;48.606;7.598;2023-08-06T00:33:56;1.00;1.00;1.00
76383;PMS7003;65204;48.606;7.598;2023-08-06T00:34:26;1.00;1.00;0.75
76383;PMS7003;65204;48.606;7.598;2023-08-06T00:34:56;2.50;1.00;1.00
76383;PMS7003;65204;48.606;7.598;2023-08-06T00:35:27;1.00;1.00;1.00
76383;PMS7003;65204;48.606;7.598;2023-08-06T00:35:57;1.00;1.00;1.00
76383;PMS7003;65204;48.606;7.598;2023-08-06T00:36:27;1.00;1.00;1.00
76383;PMS7003;65204;48.606;7.598;2023-08-06T00:36:58;1.00;1.00;1.00
76383;PMS7003;65204;48.606;7.598;2023-08-06T00:37:28;1.00;1.00;1.00
76383;PMS7003;65204;48.606;7.598;2023-08-06T00:37:59;1.00;1.00;1.00
76383;PMS7003;65204;48.606;7.598;2023-08-06T00:38:29;0.50;0.50;0.50
76383;PMS7003;65204;48.606;7.598;2023-08-06T00:38:59;1.50;1.50;1.00
76383;PMS7003;65204;48.606;7.598;2023-08-06T00:39:30;1.00;1.00;1.00
76383;PMS7003;65204;48.606;7.598;2023-08-06T00:40:00;1.00;1.00;1.00
76383;PMS7003;65204;48.606;7.598;2023-08-06T00:40:30;1.00;1.00;1.00
76383;PMS7003;65204;48.606;7.598;2023-08-06T00:41:01;1.00;1.00;1.00
76383;PMS7003;65204;48.606;7.598;2023-08-06T00:41:31;1.00;1.00;1.00
76383;PMS7003;65204;48.606;7.598;2023-08-06T00:42:02;1.00;1.00;1.00
76383;PMS7003;65204;48.606;7.598;2023-08-06T00:42:32;1.00;1.00;0.50
76383;PMS7003;65204;48.606;7.598;2023-08-06T00:43:03;1.00;1.00;1.00
76383;PMS7003;65204;48.606;7.598;2023-08-06T00:43:33;2.00;1.00;1.00
76383;PMS7003;65204;48.606;7.598;2023-08-06T00:44:04;2.00;2.00;1.00
76383;PMS7003;65204;48.606;7.598;2023-08-06T00:44:34;1.00;1.00;1.00
76383;PMS7003;65204;48.606;7.598;2023-08-06T00:45:04;0.50;0.50;0.50
76383;PMS7003;65204;48.606;7.598;2023-08-06T00:45:37;0.25;0.25;0.00
76383;PMS7003;65204;48.606;7.598;2023-08-06T00:46:07;1.40;1.40;1.00
76383;PMS7003;65204;48.606;7.598;2023-08-06T00:46:38;2.25;1.00;1.00
76383;PMS7003;65204;48.606;7.598;2023-08-06T00:47:08;2.75;1.00;1.00
76383;PMS7003;65204;48.606;7.598;2023-08-06T00:47:39;2.00;1.00;1.00
76383;PMS7003;65204;48.606;7.598;2023-08-06T00:48:10;1.50;1.50;1.50
76383;PMS7003;65204;48.606;7.598;2023-08-06T00:48:41;1.00;1.00;0.50
76383;PMS7003;65204;48.606;7.598;2023-08-06T00:49:12;1.00;1.00;0.50
76383;PMS7003;65204;48.606;7.598;2023-08-06T00:49:42;1.25;1.25;1.00
76383;PMS7003;65204;48.606;7.598;2023-08-06T00:50:12;1.75;1.25;1.00
76383;PMS7003;65204;48.606;7.598;2023-08-06T00:50:43;1.00;1.00;1.00
76383;PMS7003;65204;48.606;7.598;2023-08-06T00:51:13;3.50;1.75;1.00
76383;PMS7003;65204;48.606;7.598;2023-08-06T00:51:45;1.00;1.00;1.00
76383;PMS7003;65204;48.606;7.598;2023-08-06T00:52:16;2.50;1.00;1.00
76383;PMS7003;65204;48.606;7.598;2023-08-06T00:52:46;2.75;1.00;1.00
76383;PMS7003;65204;48.606;7.598;2023-08-06T00:53:17;1.00;1.00;1.00
76383;PMS7003;65204;48.606;7.598;2023-08-06T00:53:48;0.00;0.00;0.00
76383;PMS7003;65204;48.606;7.598;2023-08-06T00:54:19;0.60;0.60;0.60
76383;PMS7003;65204;48.606;7.598;2023-08-06T00:54:50;1.00;1.00;1.00
76383;PMS7003;65204;48.606;7.598;2023-08-06T00:55:20;1.75;1.00;1.00
76383;PMS7003;65204;48.606;7.598;2023-08-06T00:55:51;1.00;1.00;1.00
76383;PMS7003;65204;48.606;7.598;2023-08-06T00:56:22;2.00;1.25;1.00
76383;PMS7003;65204;48.606;7.598;2023-08-06T00:56:52;1.00;1.00;1.00
76383;PMS7003;65204;48.606;7.598;2023-08-06T00:57:24;0.75;0.75;0.00
76383;PMS7003;65204;48.606;7.598;2023-08-06T00:57:56;1.00;1.00;1.00
76383;PMS7003;65204;48.606;7.598;2023-08-06T00:58:26;1.00;1.00;1.00
76383;PMS7003;65204;48.606;7.598;2023-08-06T00:58:57;1.00;0.75;0.50
76383;PMS7003;65204;48.606;7.598;2023-08-06T00:59:28;1.25;0.25;0.00
76383;PMS7003;65204;48.606;7.598;2023-08-06T00:59:59;1.00;1.00;0.80
76383;PMS7003;65204;48.606;7.598;2023-08-06T01:00:30;1.00;1.00;0.50
76383;PMS7003;65204;48.606;7.598;2023-08-06T01:01:00;1.00;1.00;1.00
76383;PMS7003;65204;48.606;7.598;2023-08-06T01:01:30;1.00;1.00;1.00
76383;PMS7003;65204;48.606;7.598;2023-08-06T01:02:01;0.75;0.75;0.50
76383;PMS7003;65204;48.606;7.598;2023-08-06T01:02:31;2.00;1.50;1.00
76383;PMS7003;65204;48.606;7.598;2023-08-06T01:03:02;0.25;0.25;0.25
76383;PMS7003;65204;48.606;7.598;2023-08-06T01:03:32;1.50;0.75;0.75
76383;PMS7003;65204;48.606;7.598;2023-08-06T01:04:03;2.75;1.50;1.00
76383;PMS7003;65204;48.606;7.598;2023-08-06T01:04:33;1.00;1.00;1.00
76383;PMS7003;65204;48.606;7.598;2023-08-06T01:05:04;1.25;1.25;1.00
76383;PMS7003;65204;48.606;7.598;2023-08-06T01:05:34;1.25;1.00;1.00
76383;PMS7003;65204;48.606;7.598;2023-08-06T01:06:05;1.00;1.00;0.50
76383;PMS7003;65204;48.606;7.598;2023-08-06T01:06:39;1.25;1.25;1.00
76383;PMS7003;65204;48.606;7.598;2023-08-06T01:08:24;1.00;1.00;0.60
76383;PMS7003;65204;48.606;7.598;2023-08-06T01:09:06;0.80;0.80;0.60
76383;PMS7003;65204;48.606;7.598;2023-08-06T01:09:51;1.00;1.00;1.00
76383;PMS7003;65204;48.606;7.598;2023-08-06T01:10:37;1.00;1.00;1.00
76383;PMS7003;65204;48.606;7.598;2023-08-06T01:11:26;2.00;1.00;1.00
76383;PMS7003;65204;48.606;7.598;2023-08-06T01:12:09;0.40;0.40;0.20
76383;PMS7003;65204;48.606;7.598;2023-08-06T01:12:48;2.20;1.00;1.00
76383;PMS7003;65204;48.606;7.598;2023-08-06T01:13:33;1.00;0.80;0.20
76383;PMS7003;65204;48.606;7.598;2023-08-06T01:15:24;1.00;1.00;1.00
76383;PMS7003;65204;48.606;7.598;2023-08-06T01:15:59;1.00;1.00;1.00
76383;PMS7003;65204;48.606;7.598;2023-08-06T01:16:31;2.80;1.00;1.00
76383;PMS7003;65204;48.606;7.598;2023-08-06T01:17:03;3.00;2.00;2.00
76383;PMS7003;65204;48.606;7.598;2023-08-06T01:17:35;1.60;1.00;1.00
76383;PMS7003;65204;48.606;7.598;2023-08-06T01:18:06;0.40;0.20;0.00
76383;PMS7003;65204;48.606;7.598;2023-08-06T01:18:37;1.60;1.60;1.20
76383;PMS7003;65204;48.606;7.598;2023-08-06T01:19:18;1.80;1.80;1.40
76383;PMS7003;65204;48.606;7.598;2023-08-06T01:19:49;0.40;0.40;0.00
76383;PMS7003;65204;48.606;7.598;2023-08-06T01:20:19;2.00;2.00;1.00
76383;PMS7003;65204;48.606;7.598;2023-08-06T01:20:50;1.00;1.00;1.00
76383;PMS7003;65204;48.606;7.598;2023-08-06T01:21:20;2.00;2.00;2.00
76383;PMS7003;65204;48.606;7.598;2023-08-06T01:21:51;1.00;1.00;1.00
76383;PMS7003;65204;48.606;7.598;2023-08-06T01:22:21;2.00;1.50;1.00
76383;PMS7003;65204;48.606;7.598;2023-08-06T01:22:52;2.00;2.00;1.25
76383;PMS7003;65204;48.606;7.598;2023-08-06T01:23:22;1.50;1.50;1.00
76383;PMS7003;65204;48.606;7.598;2023-08-06T01:23:53;1.00;1.00;1.00
76383;PMS7003;65204;48.606;7.598;2023-08-06T01:24:24;2.00;2.00;1.00
76383;PMS7003;65204;48.606;7.598;2023-08-06T01:24:54;1.00;1.00;1.00
76383;PMS7003;65204;48.606;7.598;2023-08-06T01:25:27;1.50;1.00;1.00
76383;PMS7003;65204;48.606;7.598;2023-08-06T01:27:46;1.00;1.00;1.00
76383;PMS7003;65204;48.606;7.598;2023-08-06T01:28:22;1.20;1.20;1.20
76383;PMS7003;65204;48.606;7.598;2023-08-06T01:29:28;2.20;0.60;0.40
76383;PMS7003;65204;48.606;7.598;2023-08-06T01:30:02;1.00;1.00;1.00
76383;PMS7003;65204;48.606;7.598;2023-08-06T01:30:39;2.20;1.80;1.40
76383;PMS7003;65204;48.606;7.598;2023-08-06T01:32:00;1.00;1.00;1.00
76383;PMS7003;65204;48.606;7.598;2023-08-06T01:32:32;3.00;1.00;1.00
76383;PMS7003;65204;48.606;7.598;2023-08-06T01:33:05;2.40;1.40;1.00
76383;PMS7003;65204;48.606;7.598;2023-08-06T01:33:36;2.40;2.00;1.00
76383;PMS7003;65204;48.606;7.598;2023-08-06T01:34:17;1.00;1.00;1.00
76383;PMS7003;65204;48.606;7.598;2023-08-06T01:34:50;2.20;1.00;1.00
76383;PMS7003;65204;48.606;7.598;2023-08-06T01:35:22;1.00;1.00;1.00
76383;PMS7003;65204;48.606;7.598;2023-08-06T01:35:55;1.00;1.00;1.00
76383;PMS7003;65204;48.606;7.598;2023-08-06T01:36:26;0.50;0.50;0.25
76383;PMS7003;65204;48.606;7.598;2023-08-06T01:36:58;2.00;1.00;0.00
76383;PMS7003;65204;48.606;7.598;2023-08-06T01:37:31;0.60;0.60;0.60
76383;PMS7003;65204;48.606;7.598;2023-08-06T01:38:02;0.00;0.00;0.00
76383;PMS7003;65204;48.606;7.598;2023-08-06T01:38:33;2.00;2.00;1.60
76383;PMS7003;65204;48.606;7.598;2023-08-06T01:39:04;1.00;1.00;0.50
76383;PMS7003;65204;48.606;7.598;2023-08-06T01:39:35;1.00;1.00;1.00
76383;PMS7003;65204;48.606;7.598;2023-08-06T01:40:07;1.00;1.00;1.00
76383;PMS7003;65204;48.606;7.598;2023-08-06T01:40:40;0.00;0.00;0.00
76383;PMS7003;65204;48.606;7.598;2023-08-06T01:41:11;1.00;1.00;0.25
76383;PMS7003;65204;48.606;7.598;2023-08-06T01:41:41;1.25;0.75;0.00
76383;PMS7003;65204;48.606;7.598;2023-08-06T01:42:12;2.00;0.00;0.00
76383;PMS7003;65204;48.606;7.598;2023-08-06T01:42:42;1.75;0.00;0.00
76383;PMS7003;65204;48.606;7.598;2023-08-06T01:43:12;1.00;1.00;0.00
76383;PMS7003;65204;48.606;7.598;2023-08-06T01:43:43;1.75;1.00;1.00
76383;PMS7003;65204;48.606;7.598;2023-08-06T01:44:13;2.00;0.00;0.00
76383;PMS7003;65204;48.606;7.598;2023-08-06T01:44:44;2.00;0.80;0.00
76383;PMS7003;65204;48.606;7.598;2023-08-06T01:45:14;0.00;0.00;0.00
76383;PMS7003;65204;48.606;7.598;2023-08-06T01:45:45;0.00;0.00;0.00
76383;PMS7003;65204;48.606;7.598;2023-08-06T01:46:15;0.00;0.00;0.00
76383;PMS7003;65204;48.606;7.598;2023-08-06T01:46:45;0.00;0.00;0.00
76383;PMS7003;65204;48.606;7.598;2023-08-06T01:47:16;1.00;0.25;0.25
76383;PMS7003;65204;48.606;7.598;2023-08-06T01:47:46;0.00;0.00;0.00
76383;PMS7003;65204;48.606;7.598;2023-08-06T01:48:17;0.00;0.00;0.00
76383;PMS7003;65204;48.606;7.598;2023-08-06T01:48:47;0.00;0.00;0.00
76383;PMS7003;65204;48.606;7.598;2023-08-06T01:49:17;0.00;0.00;0.00
76383;PMS7003;65204;48.606;7.598;2023-08-06T01:49:48;1.25;0.00;0.00
76383;PMS7003;65204;48.606;7.598;2023-08-06T01:50:18;0.00;0.00;0.00
76383;PMS7003;65204;48.606;7.598;2023-08-06T01:50:48;0.00;0.00;0.00
76383;PMS7003;65204;48.606;7.598;2023-08-06T01:51:19;0.00;0.00;0.00
76383;PMS7003;65204;48.606;7.598;2023-08-06T01:51:49;0.25;0.00;0.00
76383;PMS7003;65204;48.606;7.598;2023-08-06T01:52:19;0.00;0.00;0.00
76383;PMS7003;65204;48.606;7.598;2023-08-06T01:52:50;0.00;0.00;0.00
76383;PMS7003;65204;48.606;7.598;2023-08-06T01:53:20;0.50;0.00;0.00
76383;PMS7003;65204;48.606;7.598;2023-08-06T01:53:50;0.00;0.00;0.00
76383;PMS7003;65204;48.606;7.598;2023-08-06T01:54:21;0.00;0.00;0.00
76383;PMS7003;65204;48.606;7.598;2023-08-06T01:54:52;0.00;0.00;0.00
76383;PMS7003;65204;48.606;7.598;2023-08-06T01:55:23;0.25;0.00;0.00
76383;PMS7003;65204;48.606;7.598;2023-08-06T01:55:53;0.00;0.00;0.00
76383;PMS7003;65204;48.606;7.598;2023-08-06T01:56:23;1.00;0.00;0.00
76383;PMS7003;65204;48.606;7.598;2023-08-06T01:56:54;0.00;0.00;0.00
76383;PMS7003;65204;48.606;7.598;2023-08-06T01:57:24;1.00;0.00;0.00
76383;PMS7003;65204;48.606;7.598;2023-08-06T01:57:55;0.00;0.00;0.00
76383;PMS7003;65204;48.606;7.598;2023-08-06T01:58:25;0.00;0.00;0.00
76383;PMS7003;65204;48.606;7.598;2023-08-06T01:58:55;0.25;0.00;0.00
76383;PMS7003;65204;48.606;7.598;2023-08-06T01:59:26;0.50;0.00;0.00
76383;PMS7003;65204;48.606;7.598;2023-08-06T01:59:56;0.00;0.00;0.00
76383;PMS7003;65204;48.606;7.598;2023-08-06T02:00:26;0.00;0.00;0.00
76383;PMS7003;65204;48.606;7.598;2023-08-06T02:00:58;0.40;0.00;0.00
76383;PMS7003;65204;48.606;7.598;2023-08-06T02:01:29;0.00;0.00;0.00
76383;PMS7003;65204;48.606;7.598;2023-08-06T02:01:59;0.00;0.00;0.00
76383;PMS7003;65204;48.606;7.598;2023-08-06T02:02:29;0.00;0.00;0.00
76383;PMS7003;65204;48.606;7.598;2023-08-06T02:03:00;0.00;0.00;0.00
76383;PMS7003;65204;48.606;7.598;2023-08-06T02:03:30;0.00;0.00;0.00
76383;PMS7003;65204;48.606;7.598;2023-08-06T02:04:00;0.00;0.00;0.00
76383;PMS7003;65204;48.606;7.598;2023-08-06T02:04:31;0.00;0.00;0.00
76383;PMS7003;65204;48.606;7.598;2023-08-06T02:05:01;0.25;0.00;0.00
76383;PMS7003;65204;48.606;7.598;2023-08-06T02:05:32;0.00;0.00;0.00
76383;PMS7003;65204;48.606;7.598;2023-08-06T02:06:02;0.00;0.00;0.00
76383;PMS7003;65204;48.606;7.598;2023-08-06T02:06:32;1.00;0.00;0.00
76383;PMS7003;65204;48.606;7.598;2023-08-06T02:07:03;0.00;0.00;0.00
76383;PMS7003;65204;48.606;7.598;2023-08-06T02:07:33;0.00;0.00;0.00
76383;PMS7003;65204;48.606;7.598;2023-08-06T02:08:03;1.00;0.00;0.00
76383;PMS7003;65204;48.606;7.598;2023-08-06T02:08:34;0.00;0.00;0.00
76383;PMS7003;65204;48.606;7.598;2023-08-06T02:09:04;0.00;0.00;0.00
76383;PMS7003;65204;48.606;7.598;2023-08-06T02:09:34;0.00;0.00;0.00
76383;PMS7003;65204;48.606;7.598;2023-08-06T02:10:05;0.00;0.00;0.00
76383;PMS7003;65204;48.606;7.598;2023-08-06T02:10:36;0.00;0.00;0.00
76383;PMS7003;65204;48.606;7.598;2023-08-06T02:11:06;0.00;0.00;0.00
76383;PMS7003;65204;48.606;7.598;2023-08-06T02:11:36;0.00;0.00;0.00
76383;PMS7003;65204;48.606;7.598;2023-08-06T02:12:07;0.00;0.00;0.00
76383;PMS7003;65204;48.606;7.598;2023-08-06T02:12:38;0.00;0.00;0.00
76383;PMS7003;65204;48.606;7.598;2023-08-06T02:13:08;0.00;0.00;0.00
76383;PMS7003;65204;48.606;7.598;2023-08-06T02:13:38;0.00;0.00;0.00
76383;PMS7003;65204;48.606;7.598;2023-08-06T02:14:08;0.00;0.00;0.00
76383;PMS7003;65204;48.606;7.598;2023-08-06T02:14:39;0.00;0.00;0.00
76383;PMS7003;65204;48.606;7.598;2023-08-06T02:15:09;0.75;0.00;0.00
76383;PMS7003;65204;48.606;7.598;2023-08-06T02:15:43;0.00;0.00;0.00
76383;PMS7003;65204;48.606;7.598;2023-08-06T02:16:13;0.00;0.00;0.00
76383;PMS7003;65204;48.606;7.598;2023-08-06T02:16:44;0.00;0.00;0.00
76383;PMS7003;65204;48.606;7.598;2023-08-06T02:17:14;0.00;0.00;0.00
76383;PMS7003;65204;48.606;7.598;2023-08-06T02:17:44;0.00;0.00;0.00
76383;PMS7003;65204;48.606;7.598;2023-08-06T02:18:15;0.00;0.00;0.00
76383;PMS7003;65204;48.606;7.598;2023-08-06T02:18:45;0.00;0.00;0.00
76383;PMS7003;65204;48.606;7.598;2023-08-06T02:19:16;0.50;0.00;0.00
76383;PMS7003;65204;48.606;7.598;2023-08-06T02:19:46;0.00;0.00;0.00
76383;PMS7003;65204;48.606;7.598;2023-08-06T02:20:17;0.00;0.00;0.00
76383;PMS7003;65204;48.606;7.598;2023-08-06T02:20:57;0.00;0.00;0.00
76383;PMS7003;65204;48.606;7.598;2023-08-06T02:21:28;0.00;0.00;0.00
76383;PMS7003;65204;48.606;7.598;2023-08-06T02:21:58;0.00;0.00;0.00
76383;PMS7003;65204;48.606;7.598;2023-08-06T02:22:29;0.00;0.00;0.00
76383;PMS7003;65204;48.606;7.598;2023-08-06T02:22:59;0.00;0.00;0.00
76383;PMS7003;65204;48.606;7.598;2023-08-06T02:23:29;0.50;0.00;0.00
76383;PMS7003;65204;48.606;7.598;2023-08-06T02:23:59;0.00;0.00;0.00
76383;PMS7003;65204;48.606;7.598;2023-08-06T02:24:30;0.00;0.00;0.00
76383;PMS7003;65204;48.606;7.598;2023-08-06T02:25:01;0.00;0.00;0.00
76383;PMS7003;65204;48.606;7.598;2023-08-06T02:25:31;0.00;0.00;0.00
76383;PMS7003;65204;48.606;7.598;2023-08-06T02:26:02;1.00;0.00;0.00
76383;PMS7003;65204;48.606;7.598;2023-08-06T02:26:34;0.00;0.00;0.00
76383;PMS7003;65204;48.606;7.598;2023-08-06T02:27:04;0.00;0.00;0.00
76383;PMS7003;65204;48.606;7.598;2023-08-06T02:27:35;0.00;0.00;0.00
76383;PMS7003;65204;48.606;7.598;2023-08-06T02:28:05;0.00;0.00;0.00
76383;PMS7003;65204;48.606;7.598;2023-08-06T02:28:35;1.00;0.00;0.00
76383;PMS7003;65204;48.606;7.598;2023-08-06T02:29:05;0.00;0.00;0.00
76383;PMS7003;65204;48.606;7.598;2023-08-06T02:29:36;1.00;0.00;0.00
76383;PMS7003;65204;48.606;7.598;2023-08-06T02:30:06;0.75;0.00;0.00
76383;PMS7003;65204;48.606;7.598;2023-08-06T02:30:37;0.00;0.00;0.00
76383;PMS7003;65204;48.606;7.598;2023-08-06T02:31:07;0.00;0.00;0.00
76383;PMS7003;65204;48.606;7.598;2023-08-06T02:31:37;0.00;0.00;0.00
76383;PMS7003;65204;48.606;7.598;2023-08-06T02:32:08;0.00;0.00;0.00
76383;PMS7003;65204;48.606;7.598;2023-08-06T02:32:38;0.00;0.00;0.00
76383;PMS7003;65204;48.606;7.598;2023-08-06T02:33:08;0.00;0.00;0.00
76383;PMS7003;65204;48.606;7.598;2023-08-06T02:33:39;0.50;0.00;0.00
76383;PMS7003;65204;48.606;7.598;2023-08-06T02:34:09;0.00;0.00;0.00
76383;PMS7003;65204;48.606;7.598;2023-08-06T02:34:39;1.00;0.00;0.00
76383;PMS7003;65204;48.606;7.598;2023-08-06T02:35:09;0.00;0.00;0.00
76383;PMS7003;65204;48.606;7.598;2023-08-06T02:35:40;1.00;0.00;0.00
76383;PMS7003;65204;48.606;7.598;2023-08-06T02:36:10;0.00;0.00;0.00
76383;PMS7003;65204;48.606;7.598;2023-08-06T02:36:40;0.00;0.00;0.00
76383;PMS7003;65204;48.606;7.598;2023-08-06T02:37:11;0.00;0.00;0.00
76383;PMS7003;65204;48.606;7.598;2023-08-06T02:37:41;0.00;0.00;0.00
76383;PMS7003;65204;48.606;7.598;2023-08-06T02:38:11;0.00;0.00;0.00
76383;PMS7003;65204;48.606;7.598;2023-08-06T02:38:42;0.00;0.00;0.00
76383;PMS7003;65204;48.606;7.598;2023-08-06T02:39:12;0.00;0.00;0.00
76383;PMS7003;65204;48.606;7.598;2023-08-06T02:39:42;0.00;0.00;0.00
76383;PMS7003;65204;48.606;7.598;2023-08-06T02:40:13;0.00;0.00;0.00
76383;PMS7003;65204;48.606;7.598;2023-08-06T02:40:43;0.00;0.00;0.00
76383;PMS7003;65204;48.606;7.598;2023-08-06T02:41:15;0.00;0.00;0.00
76383;PMS7003;65204;48.606;7.598;2023-08-06T02:41:45;0.00;0.00;0.00
76383;PMS7003;65204;48.606;7.598;2023-08-06T02:42:16;0.00;0.00;0.00
76383;PMS7003;65204;48.606;7.598;2023-08-06T02:42:46;0.00;0.00;0.00
76383;PMS7003;65204;48.606;7.598;2023-08-06T02:43:16;0.00;0.00;0.00
76383;PMS7003;65204;48.606;7.598;2023-08-06T02:43:47;0.00;0.00;0.00
76383;PMS7003;65204;48.606;7.598;2023-08-06T02:44:17;0.00;0.00;0.00
76383;PMS7003;65204;48.606;7.598;2023-08-06T02:44:47;0.00;0.00;0.00
76383;PMS7003;65204;48.606;7.598;2023-08-06T02:45:17;0.00;0.00;0.00
76383;PMS7003;65204;48.606;7.598;2023-08-06T02:45:48;0.00;0.00;0.00
76383;PMS7003;65204;48.606;7.598;2023-08-06T02:46:18;0.00;0.00;0.00
76383;PMS7003;65204;48.606;7.598;2023-08-06T02:46:49;0.00;0.00;0.00
76383;PMS7003;65204;48.606;7.598;2023-08-06T02:47:19;0.00;0.00;0.00
76383;PMS7003;65204;48.606;7.598;2023-08-06T02:47:49;0.00;0.00;0.00
76383;PMS7003;65204;48.606;7.598;2023-08-06T02:48:19;0.00;0.00;0.00
76383;PMS7003;65204;48.606;7.598;2023-08-06T02:48:50;0.00;0.00;0.00
76383;PMS7003;65204;48.606;7.598;2023-08-06T02:49:20;0.00;0.00;0.00
76383;PMS7003;65204;48.606;7.598;2023-08-06T02:49:50;0.50;0.00;0.00
76383;PMS7003;65204;48.606;7.598;2023-08-06T02:50:21;0.00;0.00;0.00
76383;PMS7003;65204;48.606;7.598;2023-08-06T02:50:51;0.00;0.00;0.00
76383;PMS7003;65204;48.606;7.598;2023-08-06T02:51:21;0.00;0.00;0.00
76383;PMS7003;65204;48.606;7.598;2023-08-06T02:51:52;0.00;0.00;0.00
76383;PMS7003;65204;48.606;7.598;2023-08-06T02:52:22;0.25;0.00;0.00
76383;PMS7003;65204;48.606;7.598;2023-08-06T02:52:52;1.00;0.00;0.00
76383;PMS7003;65204;48.606;7.598;2023-08-06T02:53:23;0.00;0.00;0.00
76383;PMS7003;65204;48.606;7.598;2023-08-06T02:53:53;0.00;0.00;0.00
76383;PMS7003;65204;48.606;7.598;2023-08-06T02:54:23;0.00;0.00;0.00
76383;PMS7003;65204;48.606;7.598;2023-08-06T02:54:53;0.00;0.00;0.00
76383;PMS7003;65204;48.606;7.598;2023-08-06T02:55:24;0.00;0.00;0.00
76383;PMS7003;65204;48.606;7.598;2023-08-06T02:55:54;0.00;0.00;0.00
76383;PMS7003;65204;48.606;7.598;2023-08-06T02:56:25;0.00;0.00;0.00
76383;PMS7003;65204;48.606;7.598;2023-08-06T02:56:56;0.00;0.00;0.00
76383;PMS7003;65204;48.606;7.598;2023-08-06T02:57:26;0.00;0.00;0.00
76383;PMS7003;65204;48.606;7.598;2023-08-06T02:57:56;0.00;0.00;0.00
76383;PMS7003;65204;48.606;7.598;2023-08-06T02:58:27;0.00;0.00;0.00
76383;PMS7003;65204;48.606;7.598;2023-08-06T02:58:57;0.00;0.00;0.00
76383;PMS7003;65204;48.606;7.598;2023-08-06T02:59:27;0.00;0.00;0.00
76383;PMS7003;65204;48.606;7.598;2023-08-06T02:59:58;1.00;0.00;0.00
76383;PMS7003;65204;48.606;7.598;2023-08-06T03:00:28;0.00;0.00;0.00
76383;PMS7003;65204;48.606;7.598;2023-08-06T03:01:02;0.00;0.00;0.00
76383;PMS7003;65204;48.606;7.598;2023-08-06T03:01:33;0.00;0.00;0.00
76383;PMS7003;65204;48.606;7.598;2023-08-06T03:02:04;0.00;0.00;0.00
76383;PMS7003;65204;48.606;7.598;2023-08-06T03:02:34;0.75;0.00;0.00
76383;PMS7003;65204;48.606;7.598;2023-08-06T03:03:05;0.00;0.00;0.00
76383;PMS7003;65204;48.606;7.598;2023-08-06T03:03:35;0.00;0.00;0.00
76383;PMS7003;65204;48.606;7.598;2023-08-06T03:04:06;0.00;0.00;0.00
76383;PMS7003;65204;48.606;7.598;2023-08-06T03:04:36;0.00;0.00;0.00
76383;PMS7003;65204;48.606;7.598;2023-08-06T03:05:06;0.00;0.00;0.00
76383;PMS7003;65204;48.606;7.598;2023-08-06T03:05:37;0.00;0.00;0.00
76383;PMS7003;65204;48.606;7.598;2023-08-06T03:06:07;0.00;0.00;0.00
76383;PMS7003;65204;48.606;7.598;2023-08-06T03:06:38;0.00;0.00;0.00
76383;PMS7003;65204;48.606;7.598;2023-08-06T03:07:08;0.00;0.00;0.00
76383;PMS7003;65204;48.606;7.598;2023-08-06T03:07:38;0.00;0.00;0.00